Houseimaru N0.18 — JD3769 — position and weather

sailwx.info

Track history (hours):
 
Tides and Currents Weather Stations Pressure Air Temp Water Temp Dewpoint Dewpoint Depression Visibility Wind Speed Wind Dir Waves Ship Positions

Houseimaru N0.18

Last reported at 2018-Feb-20 05:30 UTC. Time now 2018-Feb-20 05:35 UTC.
Position N 35°29' E 139°42'.

Length 63 m; draft 4 m.

Type: Tanker. MMSI: 431006012.

Date/timePositionNaut miles runAvg speedWind from/ knotsBaromVisibWave heightAir tempDewpointWater temp
2018-Feb-20 05:30N 35°29' E 139°42'0 0.0
2018-Feb-20 05:00N 35°29' E 139°42'0 0.0
2018-Feb-20 04:30N 35°29' E 139°42'0 0.0
2018-Feb-20 04:00N 35°29' E 139°42'0 0.0
2018-Feb-20 03:30N 35°29' E 139°42'0 0.0
2018-Feb-20 03:00N 35°29' E 139°42'0 0.0
2018-Feb-20 02:30N 35°29' E 139°42'0 0.0
2018-Feb-20 02:00N 35°29' E 139°42'0 0.0
2018-Feb-20 01:30N 35°29' E 139°42'0 0.0
2018-Feb-20 01:01N 35°29' E 139°42'3 5.8
2018-Feb-20 00:30N 35°27' E 139°44'4 7.9
2018-Feb-20 00:00N 35°23' E 139°46'5 9.8
2018-Feb-19 23:30N 35°18' E 139°44'510.3
2018-Feb-19 23:00N 35°14' E 139°47'510.1
2018-Feb-19 22:30N 35°09' E 139°46'910.0
2018-Feb-19 21:38N 35°02' E 139°39'210.5
2018-Feb-19 21:29N 35°01' E 139°37'2410.3
2018-Feb-19 19:10N 34°46' E 139°15'211.8
2018-Feb-19 19:00N 34°45' E 139°13'511.2
2018-Feb-19 18:30N 34°41' E 139°08'811.4
2018-Feb-19 17:50N 34°37' E 139°00'411.7
2018-Feb-19 17:30N 34°35' E 138°56'10510.9
2018-Feb-19 07:52N 34°42' E 136°49'611.1
2018-Feb-19 07:22N 34°48' E 136°46'410.4
2018-Feb-19 07:00N 34°51' E 136°45'511.0
2018-Feb-19 06:30N 34°57' E 136°43'5 9.1
2018-Feb-19 06:00N 35°00' E 136°40'0 0.1
2018-Feb-19 05:30N 35°00' E 136°40'0 0.0
2018-Feb-19 05:00N 35°00' E 136°40'0 0.0
2018-Feb-19 04:30N 35°00' E 136°40'0 0.0
2018-Feb-19 03:58N 35°00' E 136°40'0 0.2
2018-Feb-19 03:30N 35°00' E 136°40'3 6.2
2018-Feb-19 03:00N 34°59' E 136°44'4 7.6
2018-Feb-19 02:30N 35°01' E 136°48'5 9.8
2018-Feb-19 02:01N 35°04' E 136°52'0 0.7
2018-Feb-19 01:30N 35°04' E 136°52'0 0.0
2018-Feb-19 01:00N 35°04' E 136°52'0 0.0
2018-Feb-19 00:30N 35°04' E 136°52'0 0.0
2018-Feb-19 00:00N 35°04' E 136°52'0 0.0
2018-Feb-18 23:30N 35°04' E 136°52'0 1.0
2018-Feb-18 23:00N 35°04' E 136°52'5 9.7
2018-Feb-18 22:30N 34°60' E 136°49'510.7
2018-Feb-18 22:00N 34°55' E 136°47'4 8.3
2018-Feb-18 21:30N 34°51' E 136°47'4 8.5
2018-Feb-18 21:00N 34°46' E 136°49'4 7.7
2018-Feb-18 20:30N 34°43' E 136°50'102 7.2
2018-Feb-18 06:22N 33°53' E 135°02'412.2
2018-Feb-18 06:00N 33°57' E 135°02'612.2
2018-Feb-18 05:30N 34°03' E 135°03'510.5
2018-Feb-18 05:00N 34°08' E 135°06'510.5
2018-Feb-18 04:31N 34°09' E 135°12'0 0.0
2018-Feb-18 04:00N 34°09' E 135°12'0 0.0
2018-Feb-18 03:30N 34°09' E 135°12'0 0.1
2018-Feb-18 03:00N 34°09' E 135°12'0 0.0
2018-Feb-18 02:30N 34°09' E 135°12'0 0.1
2018-Feb-18 02:00N 34°09' E 135°12'0 0.0
2018-Feb-18 01:30N 34°09' E 135°12'0 0.0
2018-Feb-18 00:59N 34°09' E 135°12'0 0.0
2018-Feb-18 00:30N 34°09' E 135°12'3 5.2
2018-Feb-18 00:00N 34°09' E 135°09'2 4.0
2018-Feb-17 23:30N 34°11' E 135°08'2 3.9
2018-Feb-17 23:00N 34°13' E 135°09'0 0.0
2018-Feb-17 22:30N 34°13' E 135°09'0 0.0
2018-Feb-17 22:00N 34°13' E 135°09'0 0.0
2018-Feb-17 21:30N 34°13' E 135°09'0 0.0
2018-Feb-17 21:00N 34°13' E 135°09'0 0.0
2018-Feb-17 20:30N 34°13' E 135°09'0 0.0
2018-Feb-17 20:00N 34°13' E 135°09'0 0.0
2018-Feb-17 19:30N 34°13' E 135°09'0 0.0
2018-Feb-17 19:00N 34°13' E 135°09'0 0.0
2018-Feb-17 18:30N 34°13' E 135°09'0 0.0
2018-Feb-17 18:00N 34°13' E 135°09'0 0.0
2018-Feb-17 17:30N 34°13' E 135°09'0 0.0
2018-Feb-17 17:00N 34°13' E 135°09'0 0.0
2018-Feb-17 16:30N 34°13' E 135°09'0 0.0
2018-Feb-17 16:00N 34°13' E 135°09'0 0.0
2018-Feb-17 15:30N 34°13' E 135°09'0 0.0
2018-Feb-17 15:00N 34°13' E 135°09'0 0.0
2018-Feb-17 14:30N 34°13' E 135°09'0 0.0
2018-Feb-17 14:00N 34°13' E 135°09'0 0.0
2018-Feb-17 13:30N 34°13' E 135°09'0 0.0
2018-Feb-17 13:00N 34°13' E 135°09'0 0.0
2018-Feb-17 12:30N 34°13' E 135°09'0 0.0
2018-Feb-17 12:00N 34°13' E 135°09'0 0.0
2018-Feb-17 11:30N 34°13' E 135°09'0 0.0
2018-Feb-17 11:00N 34°13' E 135°09'0 0.0
2018-Feb-17 10:30N 34°13' E 135°09'0 0.0
2018-Feb-17 10:00N 34°13' E 135°09'0 0.0
2018-Feb-17 09:30N 34°13' E 135°09'0 0.0
2018-Feb-17 09:00N 34°13' E 135°09'0 0.0
2018-Feb-17 08:30N 34°13' E 135°09'0 0.0
2018-Feb-17 08:00N 34°13' E 135°09'0 0.0
2018-Feb-17 07:30N 34°13' E 135°09'0 0.0
2018-Feb-17 07:00N 34°13' E 135°09'0 0.0
2018-Feb-17 06:30N 34°13' E 135°09'0 0.0
2018-Feb-17 06:00N 34°13' E 135°09'0 0.0
2018-Feb-17 05:30N 34°13' E 135°09'0 0.0
2018-Feb-17 05:00N 34°13' E 135°09'0 0.0
2018-Feb-17 04:30N 34°13' E 135°09'0 0.0
2018-Feb-17 04:00N 34°13' E 135°09'0 0.0
2018-Feb-17 03:30N 34°13' E 135°09'0 0.0
2018-Feb-17 03:00N 34°13' E 135°09'0 0.0
2018-Feb-17 02:30N 34°13' E 135°09'0 0.0
2018-Feb-17 02:00N 34°13' E 135°09'0 0.0
2018-Feb-17 01:30N 34°13' E 135°09'0 0.0
2018-Feb-17 01:00N 34°13' E 135°09'0 0.0
2018-Feb-17 00:30N 34°13' E 135°09'0 0.0
2018-Feb-17 00:00N 34°13' E 135°09'0 0.0
2018-Feb-16 23:30N 34°13' E 135°09'0 0.0
2018-Feb-16 23:00N 34°13' E 135°09'1 2.1
2018-Feb-16 22:30N 34°13' E 135°07'510.6
2018-Feb-16 22:00N 34°08' E 135°04'611.1
2018-Feb-16 21:27N 34°02' E 135°03'510.9
2018-Feb-16 21:00N 33°57' E 135°02'810.7
2018-Feb-16 20:15N 33°50' E 135°05'68 8.7
2018-Feb-16 12:25N 34°00' E 136°26'46 8.4
2018-Feb-16 06:59N 34°42' E 136°49'611.7
2018-Feb-16 06:27N 34°48' E 136°45'511.6
2018-Feb-16 06:00N 34°53' E 136°45'611.6
2018-Feb-16 05:30N 34°59' E 136°43'2 4.9
2018-Feb-16 05:00N 35°00' E 136°40'0 0.0
2018-Feb-16 04:30N 35°00' E 136°40'0 0.0
2018-Feb-16 04:00N 35°00' E 136°40'0 0.0
2018-Feb-16 03:29N 35°00' E 136°40'0 0.0
2018-Feb-16 02:59N 35°00' E 136°40'0 0.0
2018-Feb-16 02:30N 35°00' E 136°40'0 0.0
2018-Feb-16 02:00N 35°00' E 136°40'0 0.0
2018-Feb-16 01:30N 35°00' E 136°40'0 0.0
2018-Feb-16 00:58N 35°00' E 136°40'0 0.0
2018-Feb-16 00:30N 35°00' E 136°40'1 1.5
2018-Feb-16 00:00N 34°60' E 136°41'3 5.6
2018-Feb-15 23:30N 34°59' E 136°44'0 0.0
2018-Feb-15 23:00N 34°59' E 136°44'0 0.0
2018-Feb-15 22:30N 34°59' E 136°44'0 0.1
2018-Feb-15 22:00N 34°59' E 136°44'0 0.0
2018-Feb-15 21:30N 34°59' E 136°44'0 0.0
2018-Feb-15 21:00N 34°59' E 136°44'0 0.0
2018-Feb-15 20:30N 34°59' E 136°44'0 0.1
2018-Feb-15 20:00N 34°59' E 136°44'0 0.0
2018-Feb-15 19:30N 34°59' E 136°44'0 0.0
2018-Feb-15 19:00N 34°59' E 136°44'0 0.0
2018-Feb-15 18:30N 34°59' E 136°44'0 0.0
2018-Feb-15 18:00N 34°59' E 136°44'0 0.1
2018-Feb-15 17:27N 34°59' E 136°44'0 0.0
2018-Feb-15 17:00N 34°59' E 136°44'0 0.0
2018-Feb-15 16:30N 34°59' E 136°44'0 0.0
2018-Feb-15 16:00N 34°59' E 136°44'0 0.0
2018-Feb-15 15:30N 34°59' E 136°44'0 0.0
2018-Feb-15 15:00N 34°59' E 136°44'0 0.0
2018-Feb-15 14:30N 34°59' E 136°44'0 0.0
2018-Feb-15 14:00N 34°59' E 136°44'0 0.0
2018-Feb-15 13:30N 34°59' E 136°44'0 0.0
2018-Feb-15 13:00N 34°59' E 136°44'0 0.0
2018-Feb-15 12:30N 34°59' E 136°44'0 0.0
2018-Feb-15 12:00N 34°59' E 136°44'0 0.1
2018-Feb-15 11:30N 34°59' E 136°44'0 0.0
2018-Feb-15 11:00N 34°59' E 136°44'0 0.1
2018-Feb-15 10:30N 34°59' E 136°44'0 0.0
2018-Feb-15 10:00N 34°59' E 136°44'0 0.1
2018-Feb-15 09:30N 34°59' E 136°44'0 0.0
2018-Feb-15 09:00N 34°59' E 136°44'0 0.0
2018-Feb-15 08:30N 34°59' E 136°44'4 8.0
2018-Feb-15 08:00N 35°01' E 136°48'4 8.4
2018-Feb-15 07:31N 35°04' E 136°52'0 0.0
2018-Feb-15 07:00N 35°04' E 136°52'0 0.0
2018-Feb-15 06:30N 35°04' E 136°52'0 0.0
2018-Feb-15 06:00N 35°04' E 136°52'0 0.0
2018-Feb-15 05:30N 35°04' E 136°52'0 0.0
2018-Feb-15 05:00N 35°04' E 136°52'0 0.0
2018-Feb-15 04:29N 35°04' E 136°52'0 0.0
2018-Feb-15 04:00N 35°04' E 136°52'0 0.0
2018-Feb-15 03:29N 35°04' E 136°52'0 0.0
2018-Feb-15 03:00N 35°04' E 136°52'0 0.6
2018-Feb-15 02:30N 35°04' E 136°52'1 2.4
2018-Feb-15 02:00N 35°05' E 136°53'0 0.0
2018-Feb-15 01:30N 35°05' E 136°53'0 0.0
2018-Feb-15 01:00N 35°05' E 136°53'0 0.0
2018-Feb-15 00:30N 35°05' E 136°53'0 0.0
2018-Feb-15 00:00N 35°05' E 136°53'0 0.0
2018-Feb-14 23:30N 35°05' E 136°53'0 0.0
2018-Feb-14 23:00N 35°05' E 136°53'0 0.0
2018-Feb-14 22:30N 35°05' E 136°53'0 0.1
2018-Feb-14 22:00N 35°05' E 136°53'0 0.1
2018-Feb-14 21:30N 35°05' E 136°53'0 0.0
2018-Feb-14 21:00N 35°05' E 136°53'0 0.1
2018-Feb-14 20:30N 35°05' E 136°53'0 0.1
2018-Feb-14 20:00N 35°05' E 136°53'0 0.0
2018-Feb-14 19:30N 35°05' E 136°53'0 0.1
2018-Feb-14 19:00N 35°05' E 136°53'0 0.1
2018-Feb-14 18:30N 35°05' E 136°53'0 0.0
2018-Feb-14 18:00N 35°05' E 136°53'0 0.1
2018-Feb-14 17:30N 35°05' E 136°53'0 0.1
2018-Feb-14 17:00N 35°05' E 136°53'0 0.0
2018-Feb-14 16:30N 35°05' E 136°53'0 0.0
2018-Feb-14 16:00N 35°05' E 136°53'0 0.0
2018-Feb-14 15:30N 35°05' E 136°53'0 0.0
2018-Feb-14 15:00N 35°05' E 136°53'0 0.0
2018-Feb-14 14:31N 35°05' E 136°53'0 0.0
2018-Feb-14 14:00N 35°05' E 136°53'0 0.0
2018-Feb-14 13:30N 35°05' E 136°53'0 0.0
2018-Feb-14 13:00N 35°05' E 136°53'0 0.0
2018-Feb-14 12:30N 35°05' E 136°53'0 0.0
2018-Feb-14 12:00N 35°05' E 136°53'0 0.0
2018-Feb-14 11:30N 35°05' E 136°53'0 0.0
2018-Feb-14 10:59N 35°05' E 136°53'0 0.0
2018-Feb-14 10:28N 35°05' E 136°53'0 0.0
2018-Feb-14 10:00N 35°05' E 136°53'0 0.0
2018-Feb-14 09:30N 35°05' E 136°53'0 0.0
2018-Feb-14 09:00N 35°05' E 136°53'0 0.0
2018-Feb-14 08:30N 35°05' E 136°53'0 0.0
2018-Feb-14 08:00N 35°05' E 136°53'1 1.3
2018-Feb-14 07:30N 35°04' E 136°52'0 0.0
2018-Feb-14 07:00N 35°04' E 136°52'0 0.0
2018-Feb-14 06:30N 35°04' E 136°52'0 0.0
2018-Feb-14 06:00N 35°04' E 136°52'0 0.0
2018-Feb-14 05:30N 35°04' E 136°52'0 0.0
2018-Feb-14 05:00N 35°04' E 136°52'0 0.0
2018-Feb-14 04:29N 35°04' E 136°52'0 0.7
2018-Feb-14 04:00N 35°05' E 136°52'0 0.5
2018-Feb-14 03:30N 35°05' E 136°53'0 0.0
2018-Feb-14 03:00N 35°05' E 136°53'0 0.0
2018-Feb-14 02:30N 35°05' E 136°53'0 0.0
2018-Feb-14 02:00N 35°05' E 136°53'0 0.0
2018-Feb-14 01:30N 35°05' E 136°53'0 0.0
2018-Feb-14 01:00N 35°05' E 136°53'3 5.4
2018-Feb-14 00:30N 35°02' E 136°51'510.9
2018-Feb-14 00:00N 34°58' E 136°48'510.6
2018-Feb-13 23:30N 34°53' E 136°47'510.7
2018-Feb-13 23:00N 34°47' E 136°48'510.4
2018-Feb-13 22:30N 34°43' E 136°51'18 9.5
2018-Feb-13 20:39N 34°34' E 137°09'49 9.9
2018-Feb-13 15:40N 34°35' E 138°09'1 8.5
2018-Feb-13 15:30N 34°34' E 138°11'5 8.5
2018-Feb-13 14:58N 34°35' E 138°17'5 9.7
2018-Feb-13 14:28N 34°37' E 138°22'4 9.3
2018-Feb-13 13:59N 34°39' E 138°27'4 8.6
2018-Feb-13 13:29N 34°39' E 138°32'4 7.9
2018-Feb-13 12:59N 34°38' E 138°37'4 7.2
2018-Feb-13 12:25N 34°37' E 138°41'3 6.6
2018-Feb-13 11:58N 34°36' E 138°45'3 5.8
2018-Feb-13 11:27N 34°35' E 138°48'4 5.0
2018-Feb-13 10:36N 34°36' E 138°53'1 5.7
2018-Feb-13 10:30N 34°36' E 138°54'3 5.7
2018-Feb-13 10:00N 34°36' E 138°57'5 8.2
2018-Feb-13 09:27N 34°40' E 139°02'4 8.6
2018-Feb-13 09:00N 34°43' E 139°04'5 8.8
2018-Feb-13 08:29N 34°47' E 139°07'7 8.4
2018-Feb-13 07:43N 34°52' E 139°11'5 9.1
2018-Feb-13 07:12N 34°55' E 139°16'2 9.2
2018-Feb-13 06:59N 34°56' E 139°18'4 8.9
2018-Feb-13 06:30N 34°58' E 139°22'7 9.1
2018-Feb-13 05:46N 35°02' E 139°29'3 9.1
2018-Feb-13 05:27N 35°03' E 139°33'5 9.3
2018-Feb-13 04:56N 35°05' E 139°38'4 9.7
2018-Feb-13 04:28N 35°08' E 139°42'510.0
2018-Feb-13 04:00N 35°12' E 139°45'5 9.5
2018-Feb-13 03:30N 35°16' E 139°45'510.5
2018-Feb-13 03:00N 35°21' E 139°42'5 9.7
2018-Feb-13 02:30N 35°25' E 139°45'510.7
2018-Feb-13 02:00N 35°29' E 139°50'1111.1
2018-Feb-13 01:00N 35°38' E 139°58'3 2.8
2018-Feb-12 23:50N 35°41' E 139°56'0 0.0
2018-Feb-12 23:24N 35°41' E 139°56'0 0.2
2018-Feb-12 22:56N 35°40' E 139°57'3 7.4
2018-Feb-12 22:29N 35°37' E 139°58'4 0.6
2018-Feb-12 16:43N 35°35' E 139°55'0 0.0
2018-Feb-12 06:10N 35°35' E 139°55'410.1
2018-Feb-12 05:46N 35°31' E 139°53'311.6
2018-Feb-12 05:31N 35°29' E 139°51'611.8
2018-Feb-12 05:00N 35°24' E 139°46'611.7
2018-Feb-12 04:31N 35°19' E 139°44'510.7
2018-Feb-12 04:00N 35°14' E 139°47'610.9
2018-Feb-12 03:30N 35°08' E 139°46'1010.9
2018-Feb-12 02:35N 35°01' E 139°39'2512.7
2018-Feb-12 00:39N 34°46' E 139°14'213.2
2018-Feb-12 00:29N 34°45' E 139°12'813.2
2018-Feb-11 23:54N 34°40' E 139°05'511.6
2018-Feb-11 23:27N 34°37' E 138°60'612.1
2018-Feb-11 22:59N 34°35' E 138°54'196 9.7
2018-Feb-11 02:50N 33°52' E 135°02'412.1
2018-Feb-11 02:30N 33°56' E 135°02'611.9
2018-Feb-11 02:00N 34°02' E 135°03'611.8
2018-Feb-11 01:31N 34°08' E 135°03'611.8
2018-Feb-11 01:00N 34°14' E 135°03'612.1
2018-Feb-11 00:31N 34°20' E 135°05'510.0
2018-Feb-11 00:01N 34°23' E 135°10'0 0.1
2018-Feb-10 23:30N 34°23' E 135°10'0 0.0
2018-Feb-10 23:00N 34°23' E 135°10'0 0.0
2018-Feb-10 22:31N 34°23' E 135°10'0 0.0
2018-Feb-10 22:01N 34°23' E 135°10'0 0.0
2018-Feb-10 21:30N 34°23' E 135°10'0 0.0
2018-Feb-10 21:00N 34°23' E 135°10'0 0.0
2018-Feb-10 20:31N 34°23' E 135°10'0 0.0
2018-Feb-10 20:00N 34°23' E 135°10'0 0.0
2018-Feb-10 19:30N 34°23' E 135°10'0 0.0
2018-Feb-10 19:00N 34°23' E 135°10'0 0.0
2018-Feb-10 18:31N 34°23' E 135°10'0 0.0
2018-Feb-10 18:00N 34°23' E 135°10'0 0.0
2018-Feb-10 17:31N 34°23' E 135°10'0 0.0
2018-Feb-10 17:00N 34°23' E 135°10'0 0.0
2018-Feb-10 16:30N 34°23' E 135°10'0 0.0
2018-Feb-10 16:01N 34°23' E 135°10'0 0.0
2018-Feb-10 15:31N 34°23' E 135°10'0 0.1
2018-Feb-10 15:01N 34°23' E 135°10'0 0.0
2018-Feb-10 14:30N 34°23' E 135°10'0 0.0
2018-Feb-10 14:00N 34°23' E 135°10'0 0.0
2018-Feb-10 13:30N 34°23' E 135°10'0 0.0
2018-Feb-10 13:01N 34°23' E 135°10'0 0.0
2018-Feb-10 12:30N 34°23' E 135°10'0 0.0
2018-Feb-10 12:00N 34°23' E 135°10'0 0.0
2018-Feb-10 11:31N 34°23' E 135°10'0 0.0
2018-Feb-10 11:01N 34°23' E 135°10'0 0.0
2018-Feb-10 10:31N 34°23' E 135°10'0 0.0
2018-Feb-10 10:00N 34°23' E 135°10'0 0.0
2018-Feb-10 09:31N 34°23' E 135°10'0 0.0
2018-Feb-10 09:01N 34°23' E 135°10'0 0.0
2018-Feb-10 08:30N 34°23' E 135°10'0 0.1
2018-Feb-10 08:00N 34°23' E 135°10'0 0.1
2018-Feb-10 07:31N 34°23' E 135°10'0 0.0
2018-Feb-10 07:01N 34°23' E 135°10'0 0.0
2018-Feb-10 06:31N 34°23' E 135°10'0 0.0
2018-Feb-10 06:01N 34°23' E 135°10'0 0.0
2018-Feb-10 05:30N 34°23' E 135°10'  
Track history (hours):
 
Tides and Currents Weather Stations Pressure Air Temp Water Temp Dewpoint Dewpoint Depression Visibility Wind Speed Wind Dir Waves Ship Positions

Houseimaru N0.18

Last reported at 2018-Feb-20 05:30 UTC. Time now 2018-Feb-20 05:35 UTC.
Position N 35°29' E 139°42'.

Length 63 m; draft 4 m.

Type: Tanker. MMSI: 431006012.

Date/timePositionNaut miles runAvg speedWind from/ knotsBaromVisibWave heightAir tempDewpointWater temp
2018-Feb-20 05:30N 35°29' E 139°42'0 0.0
2018-Feb-20 05:00N 35°29' E 139°42'0 0.0
2018-Feb-20 04:30N 35°29' E 139°42'0 0.0
2018-Feb-20 04:00N 35°29' E 139°42'0 0.0
2018-Feb-20 03:30N 35°29' E 139°42'0 0.0
2018-Feb-20 03:00N 35°29' E 139°42'0 0.0
2018-Feb-20 02:30N 35°29' E 139°42'0 0.0
2018-Feb-20 02:00N 35°29' E 139°42'0 0.0
2018-Feb-20 01:30N 35°29' E 139°42'0 0.0
2018-Feb-20 01:01N 35°29' E 139°42'3 5.8
2018-Feb-20 00:30N 35°27' E 139°44'4 7.9
2018-Feb-20 00:00N 35°23' E 139°46'5 9.8
2018-Feb-19 23:30N 35°18' E 139°44'510.3
2018-Feb-19 23:00N 35°14' E 139°47'510.1
2018-Feb-19 22:30N 35°09' E 139°46'910.0
2018-Feb-19 21:38N 35°02' E 139°39'210.5
2018-Feb-19 21:29N 35°01' E 139°37'2410.3
2018-Feb-19 19:10N 34°46' E 139°15'211.8
2018-Feb-19 19:00N 34°45' E 139°13'511.2
2018-Feb-19 18:30N 34°41' E 139°08'811.4
2018-Feb-19 17:50N 34°37' E 139°00'411.7
2018-Feb-19 17:30N 34°35' E 138°56'10510.9
2018-Feb-19 07:52N 34°42' E 136°49'611.1
2018-Feb-19 07:22N 34°48' E 136°46'410.4
2018-Feb-19 07:00N 34°51' E 136°45'511.0
2018-Feb-19 06:30N 34°57' E 136°43'5 9.1
2018-Feb-19 06:00N 35°00' E 136°40'0 0.1
2018-Feb-19 05:30N 35°00' E 136°40'0 0.0
2018-Feb-19 05:00N 35°00' E 136°40'0 0.0
2018-Feb-19 04:30N 35°00' E 136°40'0 0.0
2018-Feb-19 03:58N 35°00' E 136°40'0 0.2
2018-Feb-19 03:30N 35°00' E 136°40'3 6.2
2018-Feb-19 03:00N 34°59' E 136°44'4 7.6
2018-Feb-19 02:30N 35°01' E 136°48'5 9.8
2018-Feb-19 02:01N 35°04' E 136°52'0 0.7
2018-Feb-19 01:30N 35°04' E 136°52'0 0.0
2018-Feb-19 01:00N 35°04' E 136°52'0 0.0
2018-Feb-19 00:30N 35°04' E 136°52'0 0.0
2018-Feb-19 00:00N 35°04' E 136°52'0 0.0
2018-Feb-18 23:30N 35°04' E 136°52'0 1.0
2018-Feb-18 23:00N 35°04' E 136°52'5 9.7
2018-Feb-18 22:30N 34°60' E 136°49'510.7
2018-Feb-18 22:00N 34°55' E 136°47'4 8.3
2018-Feb-18 21:30N 34°51' E 136°47'4 8.5
2018-Feb-18 21:00N 34°46' E 136°49'4 7.7
2018-Feb-18 20:30N 34°43' E 136°50'102 7.2
2018-Feb-18 06:22N 33°53' E 135°02'412.2
2018-Feb-18 06:00N 33°57' E 135°02'612.2
2018-Feb-18 05:30N 34°03' E 135°03'510.5
2018-Feb-18 05:00N 34°08' E 135°06'510.5
2018-Feb-18 04:31N 34°09' E 135°12'0 0.0
2018-Feb-18 04:00N 34°09' E 135°12'0 0.0
2018-Feb-18 03:30N 34°09' E 135°12'0 0.1
2018-Feb-18 03:00N 34°09' E 135°12'0 0.0
2018-Feb-18 02:30N 34°09' E 135°12'0 0.1
2018-Feb-18 02:00N 34°09' E 135°12'0 0.0
2018-Feb-18 01:30N 34°09' E 135°12'0 0.0
2018-Feb-18 00:59N 34°09' E 135°12'0 0.0
2018-Feb-18 00:30N 34°09' E 135°12'3 5.2
2018-Feb-18 00:00N 34°09' E 135°09'2 4.0
2018-Feb-17 23:30N 34°11' E 135°08'2 3.9
2018-Feb-17 23:00N 34°13' E 135°09'0 0.0
2018-Feb-17 22:30N 34°13' E 135°09'0 0.0
2018-Feb-17 22:00N 34°13' E 135°09'0 0.0
2018-Feb-17 21:30N 34°13' E 135°09'0 0.0
2018-Feb-17 21:00N 34°13' E 135°09'0 0.0
2018-Feb-17 20:30N 34°13' E 135°09'0 0.0
2018-Feb-17 20:00N 34°13' E 135°09'0 0.0
2018-Feb-17 19:30N 34°13' E 135°09'0 0.0
2018-Feb-17 19:00N 34°13' E 135°09'0 0.0
2018-Feb-17 18:30N 34°13' E 135°09'0 0.0
2018-Feb-17 18:00N 34°13' E 135°09'0 0.0
2018-Feb-17 17:30N 34°13' E 135°09'0 0.0
2018-Feb-17 17:00N 34°13' E 135°09'0 0.0
2018-Feb-17 16:30N 34°13' E 135°09'0 0.0
2018-Feb-17 16:00N 34°13' E 135°09'0 0.0
2018-Feb-17 15:30N 34°13' E 135°09'0 0.0
2018-Feb-17 15:00N 34°13' E 135°09'0 0.0
2018-Feb-17 14:30N 34°13' E 135°09'0 0.0
2018-Feb-17 14:00N 34°13' E 135°09'0 0.0
2018-Feb-17 13:30N 34°13' E 135°09'0 0.0
2018-Feb-17 13:00N 34°13' E 135°09'0 0.0
2018-Feb-17 12:30N 34°13' E 135°09'0 0.0
2018-Feb-17 12:00N 34°13' E 135°09'0 0.0
2018-Feb-17 11:30N 34°13' E 135°09'0 0.0
2018-Feb-17 11:00N 34°13' E 135°09'0 0.0
2018-Feb-17 10:30N 34°13' E 135°09'0 0.0
2018-Feb-17 10:00N 34°13' E 135°09'0 0.0
2018-Feb-17 09:30N 34°13' E 135°09'0 0.0
2018-Feb-17 09:00N 34°13' E 135°09'0 0.0
2018-Feb-17 08:30N 34°13' E 135°09'0 0.0
2018-Feb-17 08:00N 34°13' E 135°09'0 0.0
2018-Feb-17 07:30N 34°13' E 135°09'0 0.0
2018-Feb-17 07:00N 34°13' E 135°09'0 0.0
2018-Feb-17 06:30N 34°13' E 135°09'0 0.0
2018-Feb-17 06:00N 34°13' E 135°09'0 0.0
2018-Feb-17 05:30N 34°13' E 135°09'0 0.0
2018-Feb-17 05:00N 34°13' E 135°09'0 0.0
2018-Feb-17 04:30N 34°13' E 135°09'0 0.0
2018-Feb-17 04:00N 34°13' E 135°09'0 0.0
2018-Feb-17 03:30N 34°13' E 135°09'0 0.0
2018-Feb-17 03:00N 34°13' E 135°09'0 0.0
2018-Feb-17 02:30N 34°13' E 135°09'0 0.0
2018-Feb-17 02:00N 34°13' E 135°09'0 0.0
2018-Feb-17 01:30N 34°13' E 135°09'0 0.0
2018-Feb-17 01:00N 34°13' E 135°09'0 0.0
2018-Feb-17 00:30N 34°13' E 135°09'0 0.0
2018-Feb-17 00:00N 34°13' E 135°09'0 0.0
2018-Feb-16 23:30N 34°13' E 135°09'0 0.0
2018-Feb-16 23:00N 34°13' E 135°09'1 2.1
2018-Feb-16 22:30N 34°13' E 135°07'510.6
2018-Feb-16 22:00N 34°08' E 135°04'611.1
2018-Feb-16 21:27N 34°02' E 135°03'510.9
2018-Feb-16 21:00N 33°57' E 135°02'810.7
2018-Feb-16 20:15N 33°50' E 135°05'68 8.7
2018-Feb-16 12:25N 34°00' E 136°26'46 8.4
2018-Feb-16 06:59N 34°42' E 136°49'611.7
2018-Feb-16 06:27N 34°48' E 136°45'511.6
2018-Feb-16 06:00N 34°53' E 136°45'611.6
2018-Feb-16 05:30N 34°59' E 136°43'2 4.9
2018-Feb-16 05:00N 35°00' E 136°40'0 0.0
2018-Feb-16 04:30N 35°00' E 136°40'0 0.0
2018-Feb-16 04:00N 35°00' E 136°40'0 0.0
2018-Feb-16 03:29N 35°00' E 136°40'0 0.0
2018-Feb-16 02:59N 35°00' E 136°40'0 0.0
2018-Feb-16 02:30N 35°00' E 136°40'0 0.0
2018-Feb-16 02:00N 35°00' E 136°40'0 0.0
2018-Feb-16 01:30N 35°00' E 136°40'0 0.0
2018-Feb-16 00:58N 35°00' E 136°40'0 0.0
2018-Feb-16 00:30N 35°00' E 136°40'1 1.5
2018-Feb-16 00:00N 34°60' E 136°41'3 5.6
2018-Feb-15 23:30N 34°59' E 136°44'0 0.0
2018-Feb-15 23:00N 34°59' E 136°44'0 0.0
2018-Feb-15 22:30N 34°59' E 136°44'0 0.1
2018-Feb-15 22:00N 34°59' E 136°44'0 0.0
2018-Feb-15 21:30N 34°59' E 136°44'0 0.0
2018-Feb-15 21:00N 34°59' E 136°44'0 0.0
2018-Feb-15 20:30N 34°59' E 136°44'0 0.1
2018-Feb-15 20:00N 34°59' E 136°44'0 0.0
2018-Feb-15 19:30N 34°59' E 136°44'0 0.0
2018-Feb-15 19:00N 34°59' E 136°44'0 0.0
2018-Feb-15 18:30N 34°59' E 136°44'0 0.0
2018-Feb-15 18:00N 34°59' E 136°44'0 0.1
2018-Feb-15 17:27N 34°59' E 136°44'0 0.0
2018-Feb-15 17:00N 34°59' E 136°44'0 0.0
2018-Feb-15 16:30N 34°59' E 136°44'0 0.0
2018-Feb-15 16:00N 34°59' E 136°44'0 0.0
2018-Feb-15 15:30N 34°59' E 136°44'0 0.0
2018-Feb-15 15:00N 34°59' E 136°44'0 0.0
2018-Feb-15 14:30N 34°59' E 136°44'0 0.0
2018-Feb-15 14:00N 34°59' E 136°44'0 0.0
2018-Feb-15 13:30N 34°59' E 136°44'0 0.0
2018-Feb-15 13:00N 34°59' E 136°44'0 0.0
2018-Feb-15 12:30N 34°59' E 136°44'0 0.0
2018-Feb-15 12:00N 34°59' E 136°44'0 0.1
2018-Feb-15 11:30N 34°59' E 136°44'0 0.0
2018-Feb-15 11:00N 34°59' E 136°44'0 0.1
2018-Feb-15 10:30N 34°59' E 136°44'0 0.0
2018-Feb-15 10:00N 34°59' E 136°44'0 0.1
2018-Feb-15 09:30N 34°59' E 136°44'0 0.0
2018-Feb-15 09:00N 34°59' E 136°44'0 0.0
2018-Feb-15 08:30N 34°59' E 136°44'4 8.0
2018-Feb-15 08:00N 35°01' E 136°48'4 8.4
2018-Feb-15 07:31N 35°04' E 136°52'0 0.0
2018-Feb-15 07:00N 35°04' E 136°52'0 0.0
2018-Feb-15 06:30N 35°04' E 136°52'0 0.0
2018-Feb-15 06:00N 35°04' E 136°52'0 0.0
2018-Feb-15 05:30N 35°04' E 136°52'0 0.0
2018-Feb-15 05:00N 35°04' E 136°52'0 0.0
2018-Feb-15 04:29N 35°04' E 136°52'0 0.0
2018-Feb-15 04:00N 35°04' E 136°52'0 0.0
2018-Feb-15 03:29N 35°04' E 136°52'0 0.0
2018-Feb-15 03:00N 35°04' E 136°52'0 0.6
2018-Feb-15 02:30N 35°04' E 136°52'1 2.4
2018-Feb-15 02:00N 35°05' E 136°53'0 0.0
2018-Feb-15 01:30N 35°05' E 136°53'0 0.0
2018-Feb-15 01:00N 35°05' E 136°53'0 0.0
2018-Feb-15 00:30N 35°05' E 136°53'0 0.0
2018-Feb-15 00:00N 35°05' E 136°53'0 0.0
2018-Feb-14 23:30N 35°05' E 136°53'0 0.0
2018-Feb-14 23:00N 35°05' E 136°53'0 0.0
2018-Feb-14 22:30N 35°05' E 136°53'0 0.1
2018-Feb-14 22:00N 35°05' E 136°53'0 0.1
2018-Feb-14 21:30N 35°05' E 136°53'0 0.0
2018-Feb-14 21:00N 35°05' E 136°53'0 0.1
2018-Feb-14 20:30N 35°05' E 136°53'0 0.1
2018-Feb-14 20:00N 35°05' E 136°53'0 0.0
2018-Feb-14 19:30N 35°05' E 136°53'0 0.1
2018-Feb-14 19:00N 35°05' E 136°53'0 0.1
2018-Feb-14 18:30N 35°05' E 136°53'0 0.0
2018-Feb-14 18:00N 35°05' E 136°53'0 0.1
2018-Feb-14 17:30N 35°05' E 136°53'0 0.1
2018-Feb-14 17:00N 35°05' E 136°53'0 0.0
2018-Feb-14 16:30N 35°05' E 136°53'0 0.0
2018-Feb-14 16:00N 35°05' E 136°53'0 0.0
2018-Feb-14 15:30N 35°05' E 136°53'0 0.0
2018-Feb-14 15:00N 35°05' E 136°53'0 0.0
2018-Feb-14 14:31N 35°05' E 136°53'0 0.0
2018-Feb-14 14:00N 35°05' E 136°53'0 0.0
2018-Feb-14 13:30N 35°05' E 136°53'0 0.0
2018-Feb-14 13:00N 35°05' E 136°53'0 0.0
2018-Feb-14 12:30N 35°05' E 136°53'0 0.0
2018-Feb-14 12:00N 35°05' E 136°53'0 0.0
2018-Feb-14 11:30N 35°05' E 136°53'0 0.0
2018-Feb-14 10:59N 35°05' E 136°53'0 0.0
2018-Feb-14 10:28N 35°05' E 136°53'0 0.0
2018-Feb-14 10:00N 35°05' E 136°53'0 0.0
2018-Feb-14 09:30N 35°05' E 136°53'0 0.0
2018-Feb-14 09:00N 35°05' E 136°53'0 0.0
2018-Feb-14 08:30N 35°05' E 136°53'0 0.0
2018-Feb-14 08:00N 35°05' E 136°53'1 1.3
2018-Feb-14 07:30N 35°04' E 136°52'0 0.0
2018-Feb-14 07:00N 35°04' E 136°52'0 0.0
2018-Feb-14 06:30N 35°04' E 136°52'0 0.0
2018-Feb-14 06:00N 35°04' E 136°52'0 0.0
2018-Feb-14 05:30N 35°04' E 136°52'0 0.0
2018-Feb-14 05:00N 35°04' E 136°52'0 0.0
2018-Feb-14 04:29N 35°04' E 136°52'0 0.7
2018-Feb-14 04:00N 35°05' E 136°52'0 0.5
2018-Feb-14 03:30N 35°05' E 136°53'0 0.0
2018-Feb-14 03:00N 35°05' E 136°53'0 0.0
2018-Feb-14 02:30N 35°05' E 136°53'0 0.0
2018-Feb-14 02:00N 35°05' E 136°53'0 0.0
2018-Feb-14 01:30N 35°05' E 136°53'0 0.0
2018-Feb-14 01:00N 35°05' E 136°53'3 5.4
2018-Feb-14 00:30N 35°02' E 136°51'510.9
2018-Feb-14 00:00N 34°58' E 136°48'510.6
2018-Feb-13 23:30N 34°53' E 136°47'510.7
2018-Feb-13 23:00N 34°47' E 136°48'510.4
2018-Feb-13 22:30N 34°43' E 136°51'18 9.5
2018-Feb-13 20:39N 34°34' E 137°09'49 9.9
2018-Feb-13 15:40N 34°35' E 138°09'1 8.5
2018-Feb-13 15:30N 34°34' E 138°11'5 8.5
2018-Feb-13 14:58N 34°35' E 138°17'5 9.7
2018-Feb-13 14:28N 34°37' E 138°22'4 9.3
2018-Feb-13 13:59N 34°39' E 138°27'4 8.6
2018-Feb-13 13:29N 34°39' E 138°32'4 7.9
2018-Feb-13 12:59N 34°38' E 138°37'4 7.2
2018-Feb-13 12:25N 34°37' E 138°41'3 6.6
2018-Feb-13 11:58N 34°36' E 138°45'3 5.8
2018-Feb-13 11:27N 34°35' E 138°48'4 5.0
2018-Feb-13 10:36N 34°36' E 138°53'1 5.7
2018-Feb-13 10:30N 34°36' E 138°54'3 5.7
2018-Feb-13 10:00N 34°36' E 138°57'5 8.2
2018-Feb-13 09:27N 34°40' E 139°02'4 8.6
2018-Feb-13 09:00N 34°43' E 139°04'5 8.8
2018-Feb-13 08:29N 34°47' E 139°07'7 8.4
2018-Feb-13 07:43N 34°52' E 139°11'5 9.1
2018-Feb-13 07:12N 34°55' E 139°16'2 9.2
2018-Feb-13 06:59N 34°56' E 139°18'4 8.9
2018-Feb-13 06:30N 34°58' E 139°22'7 9.1
2018-Feb-13 05:46N 35°02' E 139°29'3 9.1
2018-Feb-13 05:27N 35°03' E 139°33'5 9.3
2018-Feb-13 04:56N 35°05' E 139°38'4 9.7
2018-Feb-13 04:28N 35°08' E 139°42'510.0
2018-Feb-13 04:00N 35°12' E 139°45'5 9.5
2018-Feb-13 03:30N 35°16' E 139°45'510.5
2018-Feb-13 03:00N 35°21' E 139°42'5 9.7
2018-Feb-13 02:30N 35°25' E 139°45'510.7
2018-Feb-13 02:00N 35°29' E 139°50'1111.1
2018-Feb-13 01:00N 35°38' E 139°58'3 2.8
2018-Feb-12 23:50N 35°41' E 139°56'0 0.0
2018-Feb-12 23:24N 35°41' E 139°56'0 0.2
2018-Feb-12 22:56N 35°40' E 139°57'3 7.4
2018-Feb-12 22:29N 35°37' E 139°58'4 0.6
2018-Feb-12 16:43N 35°35' E 139°55'0 0.0
2018-Feb-12 06:10N 35°35' E 139°55'410.1
2018-Feb-12 05:46N 35°31' E 139°53'311.6
2018-Feb-12 05:31N 35°29' E 139°51'611.8
2018-Feb-12 05:00N 35°24' E 139°46'611.7
2018-Feb-12 04:31N 35°19' E 139°44'510.7
2018-Feb-12 04:00N 35°14' E 139°47'610.9
2018-Feb-12 03:30N 35°08' E 139°46'1010.9
2018-Feb-12 02:35N 35°01' E 139°39'2512.7
2018-Feb-12 00:39N 34°46' E 139°14'213.2
2018-Feb-12 00:29N 34°45' E 139°12'813.2
2018-Feb-11 23:54N 34°40' E 139°05'511.6
2018-Feb-11 23:27N 34°37' E 138°60'612.1
2018-Feb-11 22:59N 34°35' E 138°54'196 9.7
2018-Feb-11 02:50N 33°52' E 135°02'412.1
2018-Feb-11 02:30N 33°56' E 135°02'611.9
2018-Feb-11 02:00N 34°02' E 135°03'611.8
2018-Feb-11 01:31N 34°08' E 135°03'611.8
2018-Feb-11 01:00N 34°14' E 135°03'612.1
2018-Feb-11 00:31N 34°20' E 135°05'510.0
2018-Feb-11 00:01N 34°23' E 135°10'0 0.1
2018-Feb-10 23:30N 34°23' E 135°10'0 0.0
2018-Feb-10 23:00N 34°23' E 135°10'0 0.0
2018-Feb-10 22:31N 34°23' E 135°10'0 0.0
2018-Feb-10 22:01N 34°23' E 135°10'0 0.0
2018-Feb-10 21:30N 34°23' E 135°10'0 0.0
2018-Feb-10 21:00N 34°23' E 135°10'0 0.0
2018-Feb-10 20:31N 34°23' E 135°10'0 0.0
2018-Feb-10 20:00N 34°23' E 135°10'0 0.0
2018-Feb-10 19:30N 34°23' E 135°10'0 0.0
2018-Feb-10 19:00N 34°23' E 135°10'0 0.0
2018-Feb-10 18:31N 34°23' E 135°10'0 0.0
2018-Feb-10 18:00N 34°23' E 135°10'0 0.0
2018-Feb-10 17:31N 34°23' E 135°10'0 0.0
2018-Feb-10 17:00N 34°23' E 135°10'0 0.0
2018-Feb-10 16:30N 34°23' E 135°10'0 0.0
2018-Feb-10 16:01N 34°23' E 135°10'0 0.0
2018-Feb-10 15:31N 34°23' E 135°10'0 0.1
2018-Feb-10 15:01N 34°23' E 135°10'0 0.0
2018-Feb-10 14:30N 34°23' E 135°10'0 0.0
2018-Feb-10 14:00N 34°23' E 135°10'0 0.0
2018-Feb-10 13:30N 34°23' E 135°10'0 0.0
2018-Feb-10 13:01N 34°23' E 135°10'0 0.0
2018-Feb-10 12:30N 34°23' E 135°10'0 0.0
2018-Feb-10 12:00N 34°23' E 135°10'0 0.0
2018-Feb-10 11:31N 34°23' E 135°10'0 0.0
2018-Feb-10 11:01N 34°23' E 135°10'0 0.0
2018-Feb-10 10:31N 34°23' E 135°10'0 0.0
2018-Feb-10 10:00N 34°23' E 135°10'0 0.0
2018-Feb-10 09:31N 34°23' E 135°10'0 0.0
2018-Feb-10 09:01N 34°23' E 135°10'0 0.0
2018-Feb-10 08:30N 34°23' E 135°10'0 0.1
2018-Feb-10 08:00N 34°23' E 135°10'0 0.1
2018-Feb-10 07:31N 34°23' E 135°10'0 0.0
2018-Feb-10 07:01N 34°23' E 135°10'0 0.0
2018-Feb-10 06:31N 34°23' E 135°10'0 0.0
2018-Feb-10 06:01N 34°23' E 135°10'0 0.0
2018-Feb-10 05:30N 34°23' E 135°10'  

Dump ship's entire track history